Time,TemperatureF,DewpointF,PressureIn,WindDirection,WindDirectionDegrees,WindSpeedMPH,WindSpeedGustMPH,Humidity,HourlyPrecipIn,Conditions,Clouds,dailyrainin,SoftwareType,DateUTC
2015-09-02 08:00:00,67.7,43.1,30.05,ENE,68,0.0,0.0,41,0.00,,,0.00,WUHU216HW,2015-09-02 15:00:00,
2015-09-02 08:01:00,67.7,43.1,30.05,ENE,68,0.0,0.0,41,0.00,,,0.00,WUHU216HW,2015-09-02 15:01:00,
2015-09-02 08:02:00,67.9,43.3,30.05,ENE,68,0.0,0.0,41,0.00,,,0.00,WUHU216HW,2015-09-02 15:02:00,
2015-09-02 08:07:00,67.9,43.3,30.05,ENE,68,0.0,0.4,41,0.00,,,0.00,WUHU216HW,2015-09-02 15:07:00,
2015-09-02 08:12:00,68.2,44.2,30.05,ENE,68,0.7,1.1,42,0.00,,,0.00,WUHU216HW,2015-09-02 15:12:00,
2015-09-02 08:17:00,68.4,44.4,30.05,ENE,68,0.0,1.1,42,0.00,,,0.00,WUHU216HW,2015-09-02 15:17:00,
2015-09-02 08:22:00,68.8,44.6,30.05,ENE,68,0.0,1.1,42,0.00,,,0.00,WUHU216HW,2015-09-02 15:22:00,
2015-09-02 08:27:00,69.1,45.0,30.04,ENE,68,0.2,0.2,42,0.00,,,0.00,WUHU216HW,2015-09-02 15:27:00,
2015-09-02 08:32:00,69.7,44.9,30.05,South,180,0.0,0.9,41,0.00,,,0.00,WUHU216HW,2015-09-02 15:32:00,
2015-09-02 08:37:00,70.2,44.8,30.04,SSW,203,1.1,1.1,40,0.00,,,0.00,WUHU216HW,2015-09-02 15:37:00,
2015-09-02 08:42:00,71.3,45.7,30.05,SSE,158,1.1,2.2,40,0.00,,,0.00,WUHU216HW,2015-09-02 15:42:00,
2015-09-02 08:47:00,72.5,46.2,30.04,SSE,158,0.0,2.2,39,0.00,,,0.00,WUHU216HW,2015-09-02 15:47:00,
2015-09-02 08:52:00,73.8,46.5,30.05,South,180,1.3,1.8,38,0.00,,,0.00,WUHU216HW,2015-09-02 15:52:00,
2015-09-02 08:57:00,75.2,45.5,30.05,SSW,203,0.0,2.9,35,0.00,,,0.00,WUHU216HW,2015-09-02 15:57:00,
2015-09-02 09:02:00,76.3,46.5,30.05,South,180,2.7,3.6,35,0.00,,,0.00,WUHU216HW,2015-09-02 16:02:00,
2015-09-02 09:07:00,77.4,46.0,30.05,SSE,158,4.5,5.4,33,0.00,,,0.00,WUHU216HW,2015-09-02 16:07:00,
2015-09-02 09:12:00,78.5,46.1,30.05,South,180,2.2,5.4,32,0.00,,,0.00,WUHU216HW,2015-09-02 16:12:00,
2015-09-02 09:17:00,79.6,47.0,30.05,SSW,203,3.6,4.9,32,0.00,,,0.00,WUHU216HW,2015-09-02 16:17:00,
2015-09-02 09:22:00,80.3,46.1,30.05,SSW,203,0.9,4.9,30,0.00,,,0.00,WUHU216HW,2015-09-02 16:22:00,
2015-09-02 09:27:00,79.9,46.5,30.05,SSE,158,2.2,5.1,31,0.00,,,0.00,WUHU216HW,2015-09-02 16:27:00,
2015-09-02 09:32:00,80.1,46.7,30.05,SSW,203,3.4,5.1,31,0.00,,,0.00,WUHU216HW,2015-09-02 16:32:00,
2015-09-02 09:37:00,80.5,46.3,30.05,SSW,203,3.1,4.9,30,0.00,,,0.00,WUHU216HW,2015-09-02 16:37:00,
2015-09-02 09:42:00,81.0,48.2,30.05,SSE,158,1.6,3.8,32,0.00,,,0.00,WUHU216HW,2015-09-02 16:42:00,
2015-09-02 09:47:00,81.5,48.7,30.05,SSE,158,2.5,3.8,32,0.00,,,0.00,WUHU216HW,2015-09-02 16:47:00,
2015-09-02 09:52:00,81.2,45.8,30.05,South,180,3.1,3.4,29,0.00,,,0.00,WUHU216HW,2015-09-02 16:52:00,
2015-09-02 09:57:00,81.2,45.8,30.05,South,180,2.7,5.4,29,0.00,,,0.00,WUHU216HW,2015-09-02 16:57:00,
2015-09-02 10:02:00,81.5,46.1,30.06,South,180,2.5,6.0,29,0.00,,,0.00,WUHU216HW,2015-09-02 17:02:00,
2015-09-02 10:07:00,82.1,47.6,30.05,South,180,2.5,6.0,30,0.00,,,0.00,WUHU216HW,2015-09-02 17:07:00,
2015-09-02 10:12:00,82.4,45.8,30.05,South,180,2.9,5.4,28,0.00,,,0.00,WUHU216HW,2015-09-02 17:12:00,
2015-09-02 10:17:00,82.1,46.5,30.06,South,180,2.9,5.4,29,0.00,,,0.00,WUHU216HW,2015-09-02 17:17:00,
2015-09-02 10:22:00,82.3,45.6,30.06,South,180,5.4,5.4,28,0.00,,,0.00,WUHU216HW,2015-09-02 17:22:00,
2015-09-02 10:27:00,82.4,46.8,30.06,South,180,3.8,5.4,29,0.00,,,0.00,WUHU216HW,2015-09-02 17:27:00,
2015-09-02 10:32:00,83.2,47.5,30.06,SE,135,2.2,5.4,29,0.00,,,0.00,WUHU216HW,2015-09-02 17:32:00,
2015-09-02 10:37:00,83.7,46.9,30.06,East,90,1.8,5.4,28,0.00,,,0.00,WUHU216HW,2015-09-02 17:37:00,
2015-09-02 10:42:00,83.7,49.1,30.06,SSW,203,4.0,4.7,30,0.00,,,0.00,WUHU216HW,2015-09-02 17:42:00,
2015-09-02 10:47:00,83.5,47.8,30.06,South,180,3.4,6.0,29,0.00,,,0.00,WUHU216HW,2015-09-02 17:47:00,
2015-09-02 10:52:00,83.5,45.7,30.06,South,180,6.3,6.7,27,0.00,,,0.00,WUHU216HW,2015-09-02 17:52:00,
2015-09-02 10:57:00,83.3,48.7,30.06,SSW,203,5.1,6.9,30,0.00,,,0.00,WUHU216HW,2015-09-02 17:57:00,
2015-09-02 11:02:00,83.2,47.5,30.06,WSW,248,4.5,6.9,29,0.00,,,0.00,WUHU216HW,2015-09-02 18:02:00,
2015-09-02 11:07:00,83.0,46.3,30.06,SSW,203,4.5,8.1,28,0.00,,,0.00,WUHU216HW,2015-09-02 18:07:00,
2015-09-02 11:12:00,83.2,48.5,30.06,SSW,203,2.5,8.1,30,0.00,,,0.00,WUHU216HW,2015-09-02 18:12:00,
2015-09-02 11:17:00,83.5,47.8,30.05,SSE,158,2.9,6.7,29,0.00,,,0.00,WUHU216HW,2015-09-02 18:17:00,
2015-09-02 11:22:00,83.9,47.1,30.06,SSE,158,1.6,7.2,28,0.00,,,0.00,WUHU216HW,2015-09-02 18:22:00,
2015-09-02 11:27:00,84.1,45.1,30.06,SSW,203,4.7,7.2,26,0.00,,,0.00,WUHU216HW,2015-09-02 18:27:00,
2015-09-02 11:32:00,83.9,47.1,30.06,South,180,4.0,6.9,28,0.00,,,0.00,WUHU216HW,2015-09-02 18:32:00,
2015-09-02 11:37:00,84.1,46.2,30.05,South,180,4.5,5.6,27,0.00,,,0.00,WUHU216HW,2015-09-02 18:37:00,
2015-09-02 11:42:00,84.4,45.5,30.05,South,180,3.6,5.6,26,0.00,,,0.00,WUHU216HW,2015-09-02 18:42:00,